Time;durP1;ratioP1;P1;durP2;ratioP2;P2;SDS_P1;SDS_P2;PMS_P1;PMS_P2;Temp;Humidity;BMP_temperature;BMP_pressure;BME280_temperature;BME280_humidity;BME280_pressure;Samples;Min_cycle;Max_cycle;Signal;HPM_P1;HPM_P2
2023/10/23 00:00:23;;;;;;;3.10;1.70;;;14.10;99.90;;;;;;4992590;28;20046;-65
2023/10/23 00:03:09;;;;;;;4.50;1.85;;;14.10;99.90;;;;;;4992820;28;20468;-66
2023/10/23 00:05:55;;;;;;;3.83;1.42;;;14.10;99.90;;;;;;4992388;28;20447;-65
2023/10/23 00:08:41;;;;;;;2.92;1.60;;;14.10;99.90;;;;;;4997784;28;20034;-64
2023/10/23 00:11:29;;;;;;;4.47;1.40;;;14.00;99.90;;;;;;5004329;28;20054;-64
2023/10/23 00:14:14;;;;;;;3.78;1.58;;;14.00;99.90;;;;;;4996221;28;20046;-66
2023/10/23 00:17:00;;;;;;;3.70;2.00;;;14.00;99.90;;;;;;4995565;28;20050;-64
2023/10/23 00:19:46;;;;;;;3.30;1.73;;;14.00;99.90;;;;;;4994921;28;20391;-65
2023/10/23 00:22:32;;;;;;;4.20;2.25;;;14.00;99.90;;;;;;5003641;28;20034;-65
2023/10/23 00:25:18;;;;;;;3.08;1.95;;;13.90;99.90;;;;;;5006968;28;20050;-65
2023/10/23 00:28:04;;;;;;;2.92;1.98;;;13.90;99.90;;;;;;4997773;28;20045;-65
2023/10/23 00:30:50;;;;;;;4.40;1.95;;;13.90;99.90;;;;;;4992865;28;20054;-64
2023/10/23 00:33:36;;;;;;;3.90;2.25;;;13.80;99.90;;;;;;5004637;28;20088;-63
2023/10/23 00:36:22;;;;;;;3.35;1.77;;;13.80;99.90;;;;;;4992457;28;20046;-64
2023/10/23 00:39:08;;;;;;;6.40;2.13;;;13.70;99.90;;;;;;5007137;28;20072;-65
2023/10/23 00:41:54;;;;;;;3.97;1.95;;;13.80;99.90;;;;;;5000291;28;20420;-65
2023/10/23 00:44:39;;;;;;;2.53;1.92;;;13.70;99.90;;;;;;5002307;28;20046;-65
2023/10/23 00:47:26;;;;;;;3.55;2.28;;;13.70;99.90;;;;;;5006898;28;20042;-65
2023/10/23 00:50:13;;;;;;;2.97;2.00;;;13.60;99.90;;;;;;4990757;28;20535;-65
2023/10/23 00:52:59;;;;;;;3.13;2.15;;;13.60;99.90;;;;;;4990615;28;20050;-65
2023/10/23 00:55:46;;;;;;;3.53;2.35;;;13.60;99.90;;;;;;4992286;28;20069;-65
2023/10/23 00:58:37;;;;;;;3.42;1.85;;;13.60;99.90;;;;;;4992053;28;20034;-65
2023/10/23 01:01:23;;;;;;;3.65;2.30;;;13.50;99.90;;;;;;4995548;28;20050;-64
2023/10/23 01:04:10;;;;;;;4.38;2.35;;;13.50;99.90;;;;;;4990547;28;20149;-65
2023/10/23 01:06:56;;;;;;;3.28;2.25;;;13.40;99.90;;;;;;5004966;28;20061;-65
2023/10/23 01:09:42;;;;;;;3.25;1.95;;;13.40;99.90;;;;;;5011199;28;20046;-65
2023/10/23 01:12:28;;;;;;;3.45;2.15;;;13.40;99.90;;;;;;5007193;28;20615;-65
2023/10/23 01:15:14;;;;;;;6.47;2.78;;;13.30;99.90;;;;;;5010152;28;20112;-66
2023/10/23 01:18:00;;;;;;;3.58;2.08;;;13.30;99.90;;;;;;5002840;28;20074;-65
2023/10/23 01:20:47;;;;;;;5.15;2.42;;;13.30;99.90;;;;;;4997270;28;20033;-66
2023/10/23 01:23:36;;;;;;;4.82;2.42;;;13.20;99.90;;;;;;4994585;28;20046;-65
2023/10/23 01:26:22;;;;;;;4.82;2.38;;;13.20;99.90;;;;;;4990252;28;20038;-65
2023/10/23 01:29:08;;;;;;;3.80;2.45;;;13.10;99.90;;;;;;4975683;28;20042;-65
2023/10/23 01:31:54;;;;;;;4.80;2.30;;;13.10;99.90;;;;;;4990110;28;20550;-65
2023/10/23 01:34:40;;;;;;;6.43;2.60;;;13.10;99.90;;;;;;4978568;28;20046;-65
2023/10/23 01:37:26;;;;;;;3.90;2.70;;;13.10;99.90;;;;;;4991800;28;20046;-65
2023/10/23 01:40:13;;;;;;;6.45;2.95;;;13.10;99.90;;;;;;5003531;28;20435;-65
2023/10/23 01:42:59;;;;;;;5.40;2.92;;;13.10;99.90;;;;;;5000892;28;20125;-65
2023/10/23 01:45:44;;;;;;;4.18;2.55;;;13.10;99.90;;;;;;4991647;28;20034;-64
2023/10/23 01:48:30;;;;;;;4.60;2.15;;;13.00;99.90;;;;;;4990340;28;20085;-65
2023/10/23 01:51:16;;;;;;;5.57;2.67;;;13.00;99.90;;;;;;5001484;28;20053;-65
2023/10/23 01:54:02;;;;;;;5.13;2.80;;;12.90;99.90;;;;;;5009980;28;20037;-65
2023/10/23 01:56:48;;;;;;;5.65;2.75;;;12.90;99.90;;;;;;4996252;28;20038;-66
2023/10/23 01:59:34;;;;;;;4.10;2.45;;;12.90;99.90;;;;;;4999334;28;20065;-65
2023/10/23 02:02:20;;;;;;;5.35;2.60;;;12.90;99.90;;;;;;5003611;28;20043;-65
2023/10/23 02:05:06;;;;;;;5.68;2.58;;;12.90;99.90;;;;;;4988660;28;20476;-65
2023/10/23 02:07:52;;;;;;;3.78;2.20;;;12.80;99.90;;;;;;4999518;28;20506;-65
2023/10/23 02:10:38;;;;;;;4.35;2.08;;;12.90;99.90;;;;;;4989985;28;20145;-64
2023/10/23 02:13:24;;;;;;;3.05;2.50;;;12.80;99.90;;;;;;4990500;28;20031;-64
2023/10/23 02:16:10;;;;;;;4.88;2.80;;;12.80;99.90;;;;;;4991842;28;20502;-63
2023/10/23 02:18:56;;;;;;;5.10;2.53;;;12.70;99.90;;;;;;5010368;28;20048;-67
2023/10/23 02:21:49;;;;;;;3.65;2.30;;;12.70;99.90;;;;;;5009719;28;20100;-67
2023/10/23 02:24:35;;;;;;;5.88;2.30;;;12.70;99.90;;;;;;4997970;28;20038;-67
2023/10/23 02:27:21;;;;;;;4.32;2.13;;;12.70;99.90;;;;;;5010468;28;20123;-66
2023/10/23 02:30:07;;;;;;;3.45;2.40;;;12.70;99.90;;;;;;4991170;28;20066;-67
2023/10/23 02:32:53;;;;;;;3.67;2.17;;;12.70;99.90;;;;;;5012225;28;20041;-65
2023/10/23 02:35:39;;;;;;;2.95;2.08;;;12.70;99.90;;;;;;4998533;28;20097;-66
2023/10/23 02:38:25;;;;;;;4.95;2.33;;;12.70;99.90;;;;;;5002251;28;20084;-66
2023/10/23 02:41:11;;;;;;;3.28;2.03;;;12.70;99.90;;;;;;5008531;28;20487;-66
2023/10/23 02:43:57;;;;;;;4.75;2.03;;;12.70;99.90;;;;;;4993227;28;20054;-66
2023/10/23 02:46:43;;;;;;;2.80;1.85;;;12.70;99.90;;;;;;4993355;28;20042;-66
2023/10/23 02:49:29;;;;;;;6.40;2.53;;;12.80;99.90;;;;;;5000088;28;20350;-65
2023/10/23 02:52:15;;;;;;;5.00;1.95;;;12.70;99.90;;;;;;5013149;28;20030;-66
2023/10/23 02:55:01;;;;;;;3.50;2.40;;;12.70;99.90;;;;;;5013788;28;20093;-65
2023/10/23 02:57:47;;;;;;;4.40;2.55;;;12.70;99.90;;;;;;5007026;28;20412;-66
2023/10/23 03:00:33;;;;;;;3.08;2.00;;;12.80;99.90;;;;;;4995262;28;20046;-66
2023/10/23 03:03:19;;;;;;;3.75;2.10;;;12.80;99.90;;;;;;4997545;28;20038;-65
2023/10/23 03:06:05;;;;;;;4.57;2.50;;;12.70;99.90;;;;;;4993944;28;20046;-66
2023/10/23 03:08:51;;;;;;;5.10;2.25;;;12.70;99.90;;;;;;4993312;28;20400;-65
2023/10/23 03:11:37;;;;;;;5.07;2.72;;;12.80;99.90;;;;;;5010250;28;20116;-65
2023/10/23 03:14:23;;;;;;;4.13;1.95;;;12.70;99.90;;;;;;5011993;28;20038;-66
2023/10/23 03:17:09;;;;;;;3.60;2.40;;;12.70;99.90;;;;;;4995852;28;20057;-65
2023/10/23 03:19:55;;;;;;;2.85;2.03;;;12.70;99.90;;;;;;4993502;28;20141;-65
2023/10/23 03:22:41;;;;;;;3.85;2.13;;;12.70;99.90;;;;;;4978514;28;20109;-66
2023/10/23 03:25:27;;;;;;;2.58;1.83;;;12.70;99.90;;;;;;5004576;28;20092;-65
2023/10/23 03:28:13;;;;;;;3.78;1.83;;;12.70;99.90;;;;;;4993597;28;20046;-67
2023/10/23 03:31:03;;;;;;;4.05;2.45;;;12.60;99.90;;;;;;4994065;28;20054;-66
2023/10/23 03:33:49;;;;;;;3.30;1.90;;;12.60;99.90;;;;;;5003628;28;20050;-66
2023/10/23 03:36:35;;;;;;;4.72;2.50;;;12.60;99.90;;;;;;4998336;28;20039;-66
2023/10/23 03:39:21;;;;;;;3.42;2.15;;;12.60;99.90;;;;;;4993425;28;20064;-67
2023/10/23 03:42:08;;;;;;;4.10;2.20;;;12.60;99.90;;;;;;4991873;28;20049;-67
2023/10/23 03:44:54;;;;;;;2.95;2.10;;;12.50;99.90;;;;;;4991394;28;20054;-66
2023/10/23 03:47:40;;;;;;;4.70;1.98;;;12.50;99.90;;;;;;4994759;28;20636;-67
2023/10/23 03:50:26;;;;;;;3.42;1.98;;;12.50;99.90;;;;;;5011676;28;20045;-66
2023/10/23 03:53:11;;;;;;;4.13;2.30;;;12.50;99.90;;;;;;5006925;28;20050;-66
2023/10/23 03:55:57;;;;;;;3.75;1.88;;;12.40;99.90;;;;;;4992054;28;20496;-66
2023/10/23 03:58:44;;;;;;;3.67;2.10;;;12.30;99.90;;;;;;4992414;28;20077;-66
2023/10/23 04:01:30;;;;;;;4.03;2.25;;;12.30;99.90;;;;;;4995625;28;20042;-66
2023/10/23 04:04:16;;;;;;;3.60;2.28;;;12.30;99.90;;;;;;5000435;28;20048;-66
2023/10/23 04:07:02;;;;;;;4.10;2.58;;;12.30;99.90;;;;;;4992135;28;20074;-66
2023/10/23 04:09:48;;;;;;;7.28;2.30;;;12.20;99.90;;;;;;4998696;28;20072;-66
2023/10/23 04:12:34;;;;;;;3.72;2.17;;;12.20;99.90;;;;;;5011912;28;20504;-66
2023/10/23 04:15:20;;;;;;;4.43;2.65;;;12.30;99.90;;;;;;5008107;28;20049;-65
2023/10/23 04:18:06;;;;;;;3.92;2.13;;;12.20;99.90;;;;;;4991578;28;20050;-66
2023/10/23 04:21:08;;;;;;;3.60;2.17;;;12.20;99.90;;;;;;4982274;28;20056;-66
2023/10/23 04:23:54;;;;;;;4.32;2.50;;;12.20;99.90;;;;;;5005341;28;20085;-66
2023/10/23 04:26:40;;;;;;;5.75;2.72;;;12.20;99.90;;;;;;4995459;28;20709;-65
2023/10/23 04:29:26;;;;;;;4.88;2.50;;;12.20;99.90;;;;;;4992309;28;20290;-66
2023/10/23 04:32:12;;;;;;;2.92;2.10;;;12.10;99.90;;;;;;4990481;28;20058;-66
2023/10/23 04:34:58;;;;;;;4.65;2.90;;;12.10;99.90;;;;;;4991262;28;20041;-66
2023/10/23 04:37:44;;;;;;;5.53;2.85;;;12.10;99.90;;;;;;4991744;28;20049;-66
2023/10/23 04:40:30;;;;;;;6.32;2.67;;;12.10;99.90;;;;;;4991323;28;20077;-66
2023/10/23 04:43:16;;;;;;;6.03;3.22;;;12.10;99.90;;;;;;4998539;28;20387;-67
2023/10/23 04:46:02;;;;;;;3.72;2.72;;;12.00;99.90;;;;;;5002172;28;20400;-66
2023/10/23 04:48:48;;;;;;;4.88;2.80;;;12.10;99.90;;;;;;5006572;28;20034;-66
2023/10/23 04:51:34;;;;;;;4.03;2.65;;;12.00;99.90;;;;;;4992037;28;20058;-66
2023/10/23 04:54:20;;;;;;;4.32;3.10;;;12.00;99.90;;;;;;5010592;28;20040;-66
2023/10/23 04:57:07;;;;;;;8.07;3.15;;;12.00;99.90;;;;;;4994199;28;20046;-65
2023/10/23 04:59:53;;;;;;;4.90;2.90;;;12.00;99.90;;;;;;5005504;28;20100;-65
2023/10/23 05:02:39;;;;;;;3.97;2.75;;;12.00;99.90;;;;;;5000098;28;20100;-66
2023/10/23 05:05:25;;;;;;;4.43;3.05;;;12.00;99.90;;;;;;5007247;28;20038;-65
2023/10/23 05:08:10;;;;;;;5.38;2.63;;;12.00;99.90;;;;;;4990614;28;20054;-66
2023/10/23 05:11:05;;;;;;;4.22;2.80;;;11.90;99.90;;;;;;4991401;28;20421;-65
2023/10/23 05:13:51;;;;;;;6.73;3.13;;;11.90;99.90;;;;;;5001097;28;20424;-65
2023/10/23 05:16:37;;;;;;;4.20;3.03;;;11.90;99.90;;;;;;5007515;28;20057;-65
2023/10/23 05:19:23;;;;;;;9.68;3.20;;;11.90;99.90;;;;;;4991284;28;20041;-66
2023/10/23 05:22:09;;;;;;;4.35;2.65;;;11.90;99.90;;;;;;4991069;28;20027;-66
2023/10/23 05:24:55;;;;;;;4.78;3.00;;;11.90;99.90;;;;;;4989764;28;20415;-66
2023/10/23 05:27:41;;;;;;;4.55;2.92;;;11.90;99.90;;;;;;4990161;28;20101;-65
2023/10/23 05:30:27;;;;;;;3.70;2.85;;;11.80;99.90;;;;;;5003544;28;20060;-65
2023/10/23 05:33:12;;;;;;;5.05;2.88;;;11.90;99.90;;;;;;4991992;28;20077;-65
2023/10/23 05:36:03;;;;;;;4.35;3.00;;;11.80;99.90;;;;;;4991638;28;20050;-65
2023/10/23 05:38:49;;;;;;;4.22;2.72;;;11.80;99.90;;;;;;4990380;28;20061;-65
2023/10/23 05:41:35;;;;;;;5.03;3.10;;;11.70;99.90;;;;;;4990983;28;20038;-65
2023/10/23 05:44:21;;;;;;;4.75;3.20;;;11.70;99.90;;;;;;4990865;28;20062;-65
2023/10/23 05:47:07;;;;;;;6.75;3.58;;;11.70;99.90;;;;;;5004162;28;20084;-68
2023/10/23 05:49:53;;;;;;;5.38;3.40;;;11.60;99.90;;;;;;4990849;28;20046;-65
2023/10/23 05:52:39;;;;;;;4.53;3.10;;;11.60;99.90;;;;;;4991367;28;20046;-65
2023/10/23 05:55:25;;;;;;;4.25;2.92;;;11.60;99.90;;;;;;4990727;28;20507;-66
2023/10/23 05:58:11;;;;;;;5.45;3.45;;;11.60;99.90;;;;;;4990816;28;20617;-67
2023/10/23 06:00:57;;;;;;;5.80;3.13;;;11.60;99.90;;;;;;4991285;28;20038;-67
2023/10/23 06:03:43;;;;;;;3.65;2.90;;;11.60;99.90;;;;;;4996179;28;20396;-66
2023/10/23 06:06:29;;;;;;;6.15;3.83;;;11.70;99.90;;;;;;4991406;28;20050;-66
2023/10/23 06:09:15;;;;;;;4.78;3.58;;;11.70;99.90;;;;;;4991634;28;20648;-64
2023/10/23 06:12:01;;;;;;;4.78;3.40;;;11.70;99.90;;;;;;4991507;28;20066;-65
2023/10/23 06:14:47;;;;;;;4.82;3.05;;;11.70;99.90;;;;;;4998930;28;20442;-66
2023/10/23 06:17:33;;;;;;;6.35;3.58;;;11.70;99.90;;;;;;5002194;28;20093;-65
2023/10/23 06:20:19;;;;;;;4.40;3.33;;;11.70;99.90;;;;;;5001898;28;20038;-65
2023/10/23 06:23:05;;;;;;;3.95;2.63;;;11.70;99.90;;;;;;4999907;28;20222;-65
2023/10/23 06:25:55;;;;;;;5.38;3.53;;;11.80;99.90;;;;;;5001376;28;20042;-64
2023/10/23 06:28:41;;;;;;;5.90;3.80;;;11.80;99.90;;;;;;5003030;28;20038;-65
2023/10/23 06:31:27;;;;;;;5.03;3.60;;;11.90;99.90;;;;;;4989580;28;20089;-64
2023/10/23 06:34:12;;;;;;;4.78;3.30;;;11.90;99.90;;;;;;4990270;28;20042;-64
2023/10/23 06:36:58;;;;;;;9.00;4.78;;;11.90;99.90;;;;;;4994157;28;20071;-64
2023/10/23 06:39:44;;;;;;;8.32;4.55;;;12.00;99.90;;;;;;5001823;28;20125;-64
2023/10/23 06:42:30;;;;;;;9.25;4.35;;;12.00;99.90;;;;;;4990224;28;20046;-64
2023/10/23 06:45:16;;;;;;;8.10;3.90;;;12.00;99.90;;;;;;4997051;28;20119;-65
2023/10/23 06:48:03;;;;;;;7.43;3.83;;;12.10;99.90;;;;;;5001414;28;20077;-65
2023/10/23 06:50:49;;;;;;;6.78;4.35;;;12.10;99.90;;;;;;4993818;28;20058;-65
2023/10/23 06:53:35;;;;;;;5.15;3.80;;;12.10;99.90;;;;;;4992924;28;20046;-65
2023/10/23 06:56:21;;;;;;;8.68;3.85;;;12.20;99.90;;;;;;4999534;28;20077;-65
2023/10/23 06:59:07;;;;;;;6.75;4.22;;;12.20;99.90;;;;;;4996293;28;20080;-66
2023/10/23 07:01:53;;;;;;;6.90;3.58;;;12.30;99.90;;;;;;4989440;28;20074;-67
2023/10/23 07:04:39;;;;;;;9.02;4.45;;;12.30;99.90;;;;;;4992265;28;20041;-66
2023/10/23 07:07:25;;;;;;;6.50;4.15;;;12.40;99.90;;;;;;4989880;28;20066;-65
2023/10/23 07:10:11;;;;;;;7.05;4.00;;;12.40;99.90;;;;;;4984324;28;20050;-66
2023/10/23 07:12:57;;;;;;;8.35;4.45;;;12.50;99.90;;;;;;4989821;28;20412;-65
2023/10/23 07:15:43;;;;;;;6.53;4.05;;;12.50;99.90;;;;;;5001453;28;20045;-65
2023/10/23 07:18:29;;;;;;;12.05;4.78;;;12.60;99.90;;;;;;4990010;28;20045;-65
2023/10/23 07:21:15;;;;;;;6.45;4.40;;;12.70;99.90;;;;;;4995121;28;20070;-65
2023/10/23 07:24:01;;;;;;;7.78;4.50;;;12.80;99.90;;;;;;4982976;28;20034;-65
2023/10/23 07:26:47;;;;;;;6.57;4.72;;;12.80;99.90;;;;;;4996105;28;20563;-65
2023/10/23 07:29:33;;;;;;;6.80;5.32;;;12.90;99.90;;;;;;5002460;28;20756;-65
2023/10/23 07:32:19;;;;;;;6.68;4.95;;;12.90;99.90;;;;;;5000231;28;20046;-65
2023/10/23 07:35:05;;;;;;;7.45;5.03;;;13.00;99.90;;;;;;4992420;28;20526;-66
2023/10/23 07:37:51;;;;;;;8.73;6.35;;;13.00;99.90;;;;;;5002780;28;20563;-65
2023/10/23 07:40:43;;;;;;;10.32;6.20;;;13.10;99.90;;;;;;5005330;28;20041;-66
2023/10/23 07:43:29;;;;;;;8.35;6.07;;;13.20;99.90;;;;;;4997751;28;20388;-65
2023/10/23 07:46:15;;;;;;;6.78;5.57;;;13.20;99.90;;;;;;4997291;28;20126;-64
2023/10/23 07:49:01;;;;;;;9.13;5.85;;;13.30;99.90;;;;;;5006572;28;20116;-64
2023/10/23 07:51:47;;;;;;;8.93;6.07;;;13.40;99.90;;;;;;4991817;28;20058;-66
2023/10/23 07:54:33;;;;;;;9.98;6.00;;;13.50;99.90;;;;;;4994313;28;20042;-66
2023/10/23 07:57:19;;;;;;;8.02;6.22;;;13.60;99.90;;;;;;5004525;28;20504;-65
2023/10/23 08:00:06;;;;;;;10.38;6.07;;;13.60;99.90;;;;;;4993039;28;20589;-65
2023/10/23 08:02:52;;;;;;;7.82;5.13;;;13.60;99.90;;;;;;5009779;28;20128;-66
2023/10/23 08:05:38;;;;;;;7.30;5.25;;;13.70;99.90;;;;;;4991639;28;20133;-65
2023/10/23 08:08:23;;;;;;;10.52;5.57;;;13.80;99.90;;;;;;4996879;28;20042;-65
2023/10/23 08:11:11;;;;;;;8.50;4.93;;;13.80;99.90;;;;;;4992829;28;20109;-65
2023/10/23 08:13:58;;;;;;;8.77;5.32;;;13.80;99.90;;;;;;5002059;28;20410;-66
2023/10/23 08:16:44;;;;;;;8.65;5.95;;;13.90;99.90;;;;;;5006807;28;20133;-66
2023/10/23 08:19:30;;;;;;;7.10;5.00;;;13.90;99.90;;;;;;4999252;28;20066;-66
2023/10/23 08:22:15;;;;;;;5.68;4.40;;;14.00;99.90;;;;;;4997660;28;20049;-66
2023/10/23 08:25:02;;;;;;;8.00;4.38;;;14.10;99.90;;;;;;5007151;28;20476;-66
2023/10/23 08:27:48;;;;;;;9.20;4.93;;;14.10;99.90;;;;;;5008826;28;20042;-66
2023/10/23 08:30:34;;;;;;;8.35;5.28;;;14.20;99.90;;;;;;4999975;28;20117;-66
2023/10/23 08:33:20;;;;;;;7.90;4.55;;;14.20;99.90;;;;;;4992774;28;20073;-65
2023/10/23 08:36:06;;;;;;;6.28;4.68;;;14.30;99.90;;;;;;4992161;28;20054;-65
2023/10/23 08:38:52;;;;;;;6.30;4.28;;;14.30;99.90;;;;;;4991658;28;20543;-64
2023/10/23 08:41:38;;;;;;;6.28;4.47;;;14.40;99.90;;;;;;4991306;28;20423;-66
2023/10/23 08:44:24;;;;;;;9.32;5.13;;;14.40;99.90;;;;;;4991367;28;20058;-65
2023/10/23 08:47:10;;;;;;;7.05;4.07;;;14.50;99.90;;;;;;4991367;28;20050;-65
2023/10/23 08:50:01;;;;;;;8.20;5.15;;;14.50;99.90;;;;;;4993587;28;20165;-64
2023/10/23 08:52:56;;;;;;;8.23;5.47;;;14.60;99.90;;;;;;5006172;28;20492;-65
2023/10/23 08:55:43;;;;;;;7.28;4.35;;;14.60;99.90;;;;;;5001084;28;20057;-64
2023/10/23 08:58:32;;;;;;;8.05;5.50;;;14.70;99.90;;;;;;5012799;28;20047;-65
2023/10/23 09:01:19;;;;;;;8.73;4.85;;;14.70;99.90;;;;;;4992997;28;20031;-65
2023/10/23 09:04:05;;;;;;;7.05;4.18;;;14.70;99.90;;;;;;4991285;28;20514;-65
2023/10/23 09:06:52;;;;;;;12.35;5.20;;;14.80;99.90;;;;;;5008713;28;20554;-65
2023/10/23 09:09:38;;;;;;;7.78;5.40;;;14.90;99.90;;;;;;5003750;28;20502;-65
2023/10/23 09:12:32;;;;;;;7.57;5.32;;;14.90;99.90;;;;;;4994896;28;20042;-65
2023/10/23 09:15:24;;;;;;;8.05;5.18;;;14.90;99.90;;;;;;5001931;28;20068;-65
2023/10/23 09:18:12;;;;;;;8.02;4.72;;;15.00;99.90;;;;;;5008141;28;20045;-66
2023/10/23 09:20:58;;;;;;;7.20;5.18;;;15.10;99.90;;;;;;5002599;28;20491;-66
2023/10/23 09:23:56;;;;;;;7.78;5.20;;;15.10;99.90;;;;;;5003207;28;20087;-64
2023/10/23 09:26:44;;;;;;;9.20;5.68;;;15.20;99.90;;;;;;5001835;28;20081;-65
2023/10/23 09:29:30;;;;;;;9.50;5.78;;;15.30;99.90;;;;;;4990550;28;20050;-65
2023/10/23 09:32:17;;;;;;;7.72;5.53;;;15.40;99.90;;;;;;4994554;28;20504;-65
2023/10/23 09:35:10;;;;;;;10.45;5.57;;;15.40;99.90;;;;;;4976469;28;20038;-64
2023/10/23 09:37:56;;;;;;;7.63;5.30;;;15.40;99.90;;;;;;4993464;28;20060;-65
2023/10/23 09:40:45;;;;;;;9.73;4.60;;;15.50;99.90;;;;;;4990122;28;20459;-65
2023/10/23 09:43:32;;;;;;;6.32;4.78;;;15.50;99.90;;;;;;4995258;28;20048;-64
2023/10/23 09:46:20;;;;;;;11.52;5.35;;;15.50;99.90;;;;;;4995276;28;20556;-64
2023/10/23 09:49:06;;;;;;;10.45;5.05;;;15.50;99.90;;;;;;4994476;28;20045;-63
2023/10/23 09:51:56;;;;;;;9.75;5.63;;;15.50;99.90;;;;;;5008113;28;20053;-67
2023/10/23 09:54:48;;;;;;;8.88;6.20;;;15.50;99.90;;;;;;4993438;28;20628;-65
2023/10/23 09:57:39;;;;;;;7.70;5.13;;;15.50;99.90;;;;;;4999856;28;20046;-65
2023/10/23 10:00:26;;;;;;;7.72;5.28;;;15.60;99.90;;;;;;4992853;28;20038;-65
2023/10/23 10:03:16;;;;;;;7.47;5.13;;;15.60;99.90;;;;;;4993257;28;20093;-66
2023/10/23 10:06:10;;;;;;;6.28;5.00;;;15.70;99.90;;;;;;4991408;28;20045;-64
2023/10/23 10:08:57;;;;;;;8.60;5.22;;;15.80;99.90;;;;;;4989640;28;20049;-66
2023/10/23 10:11:43;;;;;;;7.68;5.32;;;15.80;99.90;;;;;;4995428;28;20066;-66
2023/10/23 10:14:31;;;;;;;7.85;5.05;;;15.90;99.90;;;;;;4994317;28;20042;-65
2023/10/23 10:17:20;;;;;;;7.07;5.18;;;15.90;99.90;;;;;;5009825;28;20038;-66
2023/10/23 10:20:10;;;;;;;5.88;4.22;;;16.00;99.90;;;;;;5007731;28;20096;-66
2023/10/23 10:23:04;;;;;;;6.70;4.80;;;16.00;99.90;;;;;;5006343;28;20084;-65
2023/10/23 10:25:51;;;;;;;7.43;5.22;;;16.00;99.90;;;;;;4991202;28;20053;-66
2023/10/23 10:28:39;;;;;;;7.80;5.10;;;16.10;99.90;;;;;;4995004;28;20411;-66
2023/10/23 10:31:25;;;;;;;5.65;4.57;;;16.20;99.90;;;;;;5002500;28;20050;-67
2023/10/23 10:34:11;;;;;;;10.57;4.63;;;16.30;99.90;;;;;;4992507;28;20035;-65
2023/10/23 10:36:58;;;;;;;8.55;4.45;;;16.30;99.90;;;;;;4995921;28;20046;-66
2023/10/23 10:39:53;;;;;;;7.85;4.30;;;16.40;99.90;;;;;;4991209;28;20043;-66
2023/10/23 10:42:39;;;;;;;9.95;4.35;;;16.50;99.90;;;;;;4991494;28;20185;-66
2023/10/23 10:45:27;;;;;;;5.65;3.75;;;16.60;99.90;;;;;;5004180;28;20042;-66
2023/10/23 10:48:15;;;;;;;6.53;4.15;;;16.70;99.90;;;;;;4994381;28;20555;-66
2023/10/23 10:51:01;;;;;;;5.80;3.78;;;16.80;99.90;;;;;;5007956;28;20112;-66
2023/10/23 10:53:48;;;;;;;6.47;3.53;;;16.80;99.90;;;;;;4990606;28;20046;-66
2023/10/23 10:56:34;;;;;;;3.83;2.88;;;16.90;99.90;;;;;;4992374;28;20176;-67
2023/10/23 10:59:26;;;;;;;8.35;3.30;;;17.00;99.90;;;;;;4997103;28;20033;-67
2023/10/23 11:02:12;;;;;;;4.65;3.00;;;17.10;99.90;;;;;;5012460;28;20038;-67
2023/10/23 11:04:58;;;;;;;5.88;3.28;;;17.10;99.90;;;;;;5005368;28;20137;-67
2023/10/23 11:07:47;;;;;;;8.75;3.28;;;17.20;99.90;;;;;;5009699;28;20045;-67
2023/10/23 11:10:33;;;;;;;5.88;3.38;;;17.20;99.90;;;;;;5006906;28;20041;-67
2023/10/23 11:13:19;;;;;;;4.20;2.85;;;17.20;99.90;;;;;;4996539;28;20092;-67
2023/10/23 11:16:05;;;;;;;4.32;2.63;;;17.30;99.90;;;;;;5010643;28;20077;-66
2023/10/23 11:18:51;;;;;;;6.72;2.92;;;17.30;99.90;;;;;;5008775;28;20073;-65
2023/10/23 11:21:37;;;;;;;6.50;3.25;;;17.30;99.90;;;;;;5004125;28;20407;-66
2023/10/23 11:24:23;;;;;;;6.85;3.08;;;17.40;99.90;;;;;;5012185;28;20041;-67
2023/10/23 11:27:09;;;;;;;7.40;2.85;;;17.50;99.90;;;;;;4996919;28;20058;-67
2023/10/23 11:29:55;;;;;;;5.35;3.35;;;17.50;99.90;;;;;;4992504;28;20092;-66
2023/10/23 11:32:44;;;;;;;5.72;3.08;;;17.50;99.90;;;;;;4999738;28;20049;-67
2023/10/23 11:35:33;;;;;;;7.88;2.95;;;17.50;99.90;;;;;;4991279;28;20128;-66
2023/10/23 11:38:20;;;;;;;5.32;3.08;;;17.60;99.90;;;;;;4993037;28;20042;-66
2023/10/23 11:41:08;;;;;;;4.00;2.72;;;17.60;99.90;;;;;;5010941;28;20355;-66
2023/10/23 11:44:03;;;;;;;5.80;3.20;;;17.60;99.90;;;;;;4997372;28;20066;-67
2023/10/23 11:46:49;;;;;;;5.63;3.03;;;17.70;99.90;;;;;;5007461;28;20125;-66
2023/10/23 11:49:35;;;;;;;5.38;3.42;;;17.70;99.90;;;;;;4997308;28;20057;-67
2023/10/23 11:52:21;;;;;;;5.10;2.88;;;17.80;99.90;;;;;;4993176;28;20440;-67
2023/10/23 11:55:09;;;;;;;4.05;2.97;;;17.80;99.90;;;;;;5002246;28;20053;-65
2023/10/23 11:57:55;;;;;;;5.07;3.30;;;17.90;99.90;;;;;;5006681;28;20056;-65
2023/10/23 12:00:41;;;;;;;5.28;3.47;;;17.90;99.90;;;;;;5005477;28;20538;-64
2023/10/23 12:03:27;;;;;;;4.22;3.45;;;17.90;99.80;;;;;;4994402;28;20064;-64
2023/10/23 12:06:14;;;;;;;6.32;3.15;;;17.90;99.70;;;;;;5011307;28;20089;-65
2023/10/23 12:08:59;;;;;;;5.38;3.25;;;17.90;99.60;;;;;;5001144;28;20534;-64
2023/10/23 12:11:45;;;;;;;4.55;3.03;;;17.90;99.80;;;;;;4993641;28;20113;-64
2023/10/23 12:14:31;;;;;;;4.13;2.70;;;17.90;99.70;;;;;;5001983;28;20121;-65
2023/10/23 12:17:17;;;;;;;4.53;3.00;;;17.90;99.80;;;;;;5001110;28;20248;-64
2023/10/23 12:20:07;;;;;;;7.50;3.40;;;17.90;99.50;;;;;;5002274;28;20100;-65
2023/10/23 12:22:53;;;;;;;6.03;3.53;;;17.80;99.40;;;;;;5001976;28;20038;-65
2023/10/23 12:25:39;;;;;;;6.65;3.58;;;17.90;99.50;;;;;;4995865;28;20077;-65
2023/10/23 12:28:26;;;;;;;4.70;3.00;;;17.80;99.30;;;;;;4995331;28;20046;-64
2023/10/23 12:31:12;;;;;;;4.18;2.80;;;17.80;99.30;;;;;;4993596;28;20054;-64
2023/10/23 12:33:58;;;;;;;5.97;3.10;;;17.80;99.20;;;;;;5002959;28;20047;-64
2023/10/23 12:36:44;;;;;;;4.80;3.15;;;17.90;99.30;;;;;;5005010;28;20483;-64
2023/10/23 12:39:30;;;;;;;6.43;2.97;;;17.90;99.30;;;;;;4996492;28;20037;-65
2023/10/23 12:42:16;;;;;;;5.20;3.13;;;18.00;99.40;;;;;;4991564;28;20105;-65
2023/10/23 12:45:02;;;;;;;6.72;3.22;;;18.00;99.10;;;;;;5007460;28;20073;-64
2023/10/23 12:47:48;;;;;;;7.28;4.15;;;18.00;98.80;;;;;;5006137;28;20104;-64
2023/10/23 12:50:34;;;;;;;5.15;3.58;;;17.90;98.70;;;;;;4992202;28;20103;-65
2023/10/23 12:53:20;;;;;;;5.00;3.47;;;17.90;98.60;;;;;;4994948;28;20049;-65
2023/10/23 12:56:06;;;;;;;4.68;3.63;;;17.80;98.70;;;;;;4999193;28;20092;-65
2023/10/23 12:58:52;;;;;;;4.93;3.40;;;17.80;98.70;;;;;;5011544;28;20042;-65
2023/10/23 13:01:38;;;;;;;5.82;3.22;;;17.90;98.60;;;;;;5002913;28;20538;-64
2023/10/23 13:04:24;;;;;;;6.65;4.03;;;17.90;98.60;;;;;;5008203;28;20131;-65
2023/10/23 13:07:10;;;;;;;5.40;3.63;;;17.90;98.40;;;;;;4996621;28;20069;-65
2023/10/23 13:09:56;;;;;;;4.80;3.55;;;17.80;98.50;;;;;;4994972;28;20096;-65
2023/10/23 13:12:42;;;;;;;6.45;3.85;;;17.90;98.50;;;;;;4996095;28;20515;-63
2023/10/23 13:15:28;;;;;;;4.78;3.70;;;17.80;98.40;;;;;;4994456;28;20041;-64
2023/10/23 13:18:14;;;;;;;5.43;3.85;;;17.80;98.30;;;;;;4996857;28;20125;-65
2023/10/23 13:21:00;;;;;;;5.05;3.40;;;17.80;98.20;;;;;;4996768;28;20093;-64
2023/10/23 13:23:46;;;;;;;6.00;3.58;;;17.80;98.10;;;;;;5002955;28;20513;-67
2023/10/23 13:26:32;;;;;;;5.55;3.50;;;17.70;98.00;;;;;;4990736;28;20042;-64
2023/10/23 13:29:19;;;;;;;4.85;3.88;;;17.70;98.30;;;;;;4998780;28;20412;-68
2023/10/23 13:32:07;;;;;;;5.30;3.53;;;17.70;98.00;;;;;;4981877;28;20050;-67
2023/10/23 13:34:53;;;;;;;4.65;2.92;;;17.60;98.00;;;;;;4983252;28;20087;-66
2023/10/23 13:37:39;;;;;;;5.35;3.65;;;17.70;98.10;;;;;;5003851;28;20050;-65
2023/10/23 13:40:25;;;;;;;6.53;4.03;;;17.70;98.10;;;;;;4992512;28;20042;-67
2023/10/23 13:43:11;;;;;;;5.93;4.07;;;17.70;97.90;;;;;;5001757;28;20054;-67
2023/10/23 13:45:57;;;;;;;4.75;3.55;;;17.60;98.00;;;;;;5003286;28;20384;-65
2023/10/23 13:48:44;;;;;;;5.00;3.65;;;17.70;98.00;;;;;;4998522;28;20027;-65
2023/10/23 13:51:30;;;;;;;5.35;3.03;;;17.60;97.90;;;;;;4990313;28;20054;-67
2023/10/23 13:54:16;;;;;;;6.05;3.00;;;17.70;97.80;;;;;;4989294;28;20042;-65
2023/10/23 13:57:02;;;;;;;6.05;3.38;;;17.60;97.90;;;;;;4993171;28;20050;-65
2023/10/23 13:59:47;;;;;;;7.57;4.07;;;17.70;97.90;;;;;;4997772;28;20085;-65
2023/10/23 14:02:33;;;;;;;5.35;4.10;;;17.70;97.90;;;;;;4993149;28;20045;-66
2023/10/23 14:05:19;;;;;;;8.00;4.90;;;17.80;97.90;;;;;;5003323;28;20049;-65
2023/10/23 14:08:07;;;;;;;6.70;3.40;;;17.70;97.90;;;;;;4989696;28;20061;-65
2023/10/23 14:10:53;;;;;;;5.22;3.22;;;17.80;97.80;;;;;;4996100;28;20270;-64
2023/10/23 14:13:39;;;;;;;5.05;3.60;;;17.80;97.50;;;;;;5003857;28;20041;-65
2023/10/23 14:16:26;;;;;;;5.13;3.67;;;17.80;97.40;;;;;;4992545;28;20053;-64
2023/10/23 14:19:13;;;;;;;7.35;3.90;;;17.80;97.40;;;;;;4994817;28;20432;-65
2023/10/23 14:21:59;;;;;;;8.43;3.80;;;17.80;97.40;;;;;;4988094;28;20057;-67
2023/10/23 14:24:47;;;;;;;5.30;3.55;;;17.80;97.50;;;;;;5004230;28;20049;-66